createdAt,value
2022-10-05T00:02:14.963Z,9.40
2022-10-05T00:04:42.104Z,8.03
2022-10-05T00:07:10.500Z,11.40
2022-10-05T00:09:37.602Z,10.30
2022-10-05T00:12:31.090Z,10.90
2022-10-05T00:15:01.253Z,10.20
2022-10-05T00:17:29.780Z,10.77
2022-10-05T00:19:57.124Z,10.67
2022-10-05T00:22:25.671Z,10.23
2022-10-05T00:24:56.663Z,10.87
2022-10-05T00:27:27.871Z,10.97
2022-10-05T00:29:58.396Z,10.20
2022-10-05T00:32:25.516Z,10.20
2022-10-05T00:34:52.638Z,10.47
2022-10-05T00:37:19.727Z,10.47
2022-10-05T00:39:46.905Z,10.23
2022-10-05T00:42:20.192Z,9.80
2022-10-05T00:44:53.064Z,9.70
2022-10-05T00:47:32.140Z,8.77
2022-10-05T00:49:59.178Z,10.60
2022-10-05T00:52:26.224Z,10.77
2022-10-05T00:55:03.782Z,10.00
2022-10-05T00:57:38.269Z,10.23
2022-10-05T01:00:09.729Z,10.73
2022-10-05T01:02:55.715Z,10.30
2022-10-05T01:05:30.099Z,10.37
2022-10-05T01:08:03.111Z,10.07
2022-10-05T01:10:30.176Z,9.20
2022-10-05T01:12:57.216Z,10.00
2022-10-05T01:15:40.399Z,10.80
2022-10-05T01:18:07.475Z,10.00
2022-10-05T01:20:53.208Z,10.07
2022-10-05T01:23:35.699Z,10.20
2022-10-05T01:26:17.679Z,10.00
2022-10-05T01:28:44.759Z,10.63
2022-10-05T01:31:30.275Z,10.40
2022-10-05T01:33:57.360Z,10.43
2022-10-05T01:36:24.443Z,10.60
2022-10-05T01:39:22.320Z,10.13
2022-10-05T01:42:01.677Z,10.63
2022-10-05T01:44:41.775Z,9.77
2022-10-05T01:47:13.515Z,10.73
2022-10-05T01:49:56.037Z,10.67
2022-10-05T01:52:34.962Z,10.53
2022-10-05T01:55:13.912Z,9.70
2022-10-05T01:57:43.723Z,9.87
2022-10-05T02:00:15.007Z,9.63
2022-10-05T02:02:44.331Z,9.20
2022-10-05T02:05:11.435Z,8.37
2022-10-05T02:07:47.416Z,9.00
2022-10-05T02:10:14.483Z,8.93
2022-10-05T02:12:43.046Z,9.10
2022-10-05T02:15:15.615Z,8.30
2022-10-05T02:17:46.344Z,9.07
2022-10-05T02:20:15.790Z,8.90
2022-10-05T02:22:47.888Z,9.00
2022-10-05T02:25:16.700Z,9.30
2022-10-05T02:27:50.658Z,8.80
2022-10-05T02:30:19.044Z,8.50
2022-10-05T02:32:53.407Z,8.07
2022-10-05T02:35:22.162Z,8.03
2022-10-05T02:37:50.205Z,8.13
2022-10-05T02:40:32.840Z,7.83
2022-10-05T02:43:18.536Z,7.50
2022-10-05T02:46:07.110Z,7.20
2022-10-05T02:48:42.957Z,7.73
2022-10-05T02:51:16.494Z,8.07
2022-10-05T02:53:43.596Z,7.70
2022-10-05T02:56:16.593Z,8.77
2022-10-05T02:58:54.153Z,8.50
2022-10-05T03:01:41.646Z,8.40
2022-10-05T03:04:19.672Z,8.33
2022-10-05T03:07:07.010Z,8.30
2022-10-05T03:09:38.208Z,8.50
2022-10-05T03:12:11.469Z,8.80
2022-10-05T03:14:48.466Z,9.10
2022-10-05T03:17:23.050Z,8.83
2022-10-05T03:20:12.708Z,8.73
2022-10-05T03:22:50.689Z,9.10
2022-10-05T03:25:35.929Z,9.37
2022-10-05T03:28:07.875Z,9.30
2022-10-05T03:30:46.059Z,9.40
2022-10-05T03:33:15.939Z,9.37
2022-10-05T03:35:49.375Z,9.17
2022-10-05T03:38:26.408Z,7.93
2022-10-05T03:40:57.835Z,9.50
2022-10-05T03:43:43.498Z,9.20
2022-10-05T03:46:13.655Z,9.50
2022-10-05T03:48:47.000Z,9.23
2022-10-05T03:51:23.403Z,9.40
2022-10-05T03:53:53.713Z,10.27
2022-10-05T03:56:28.373Z,10.13
2022-10-05T03:58:58.263Z,10.00
2022-10-05T04:01:29.549Z,9.97
2022-10-05T04:04:00.145Z,8.70
2022-10-05T04:06:28.382Z,9.33
2022-10-05T04:09:00.413Z,9.50
2022-10-05T04:11:30.080Z,9.60
2022-10-05T04:14:01.667Z,9.67
2022-10-05T04:16:32.159Z,10.43
2022-10-05T04:19:22.601Z,10.47
2022-10-05T04:21:54.136Z,9.23
2022-10-05T04:24:47.678Z,9.83
2022-10-05T04:27:53.435Z,9.63
2022-10-05T04:30:22.223Z,8.87
2022-10-05T04:32:59.907Z,9.50
2022-10-05T04:35:32.735Z,9.10
2022-10-05T04:38:18.805Z,9.70
2022-10-05T04:41:04.761Z,9.03
2022-10-05T04:43:31.809Z,9.50
2022-10-05T04:46:10.205Z,9.20
2022-10-05T04:48:40.302Z,8.80
2022-10-05T04:51:20.469Z,9.10
2022-10-05T04:53:54.823Z,9.33
2022-10-05T04:56:45.454Z,8.40
2022-10-05T04:59:31.513Z,9.00
2022-10-05T05:02:06.594Z,9.67
2022-10-05T05:04:42.532Z,9.30
2022-10-05T05:07:28.427Z,9.07
2022-10-05T05:10:07.795Z,9.80
2022-10-05T05:12:34.842Z,9.87
2022-10-05T05:15:08.090Z,9.00
2022-10-05T05:17:44.050Z,9.80
2022-10-05T05:20:22.803Z,9.27
2022-10-05T05:23:05.271Z,8.57
2022-10-05T05:25:32.328Z,10.00
2022-10-05T05:28:05.738Z,10.17
2022-10-05T05:30:59.277Z,10.10
2022-10-05T05:33:33.204Z,10.30
2022-10-05T05:36:03.343Z,10.17
2022-10-05T05:38:42.768Z,9.90
2022-10-05T05:41:12.591Z,9.87
2022-10-05T05:44:00.797Z,10.13
2022-10-05T05:46:51.539Z,10.63
2022-10-05T05:49:22.971Z,11.13
2022-10-05T05:51:56.775Z,11.57
2022-10-05T05:54:28.111Z,11.47
2022-10-05T05:56:59.513Z,11.37
2022-10-05T05:59:55.894Z,11.00
2022-10-05T06:02:29.206Z,11.77
2022-10-05T06:04:59.443Z,11.93
2022-10-05T06:07:30.587Z,11.33
2022-10-05T06:10:13.235Z,12.03
2022-10-05T06:12:42.954Z,11.90
2022-10-05T06:15:17.832Z,11.37
2022-10-05T06:17:48.060Z,11.67
2022-10-05T06:20:34.079Z,11.53
2022-10-05T06:23:04.237Z,11.10
2022-10-05T06:25:41.448Z,11.67
2022-10-05T06:28:19.522Z,10.90
2022-10-05T06:30:46.656Z,11.80
2022-10-05T06:33:25.737Z,11.50
2022-10-05T06:35:58.743Z,11.60
2022-10-05T06:38:34.833Z,11.10
2022-10-05T06:41:10.847Z,11.87
2022-10-05T06:43:47.539Z,12.60
2022-10-05T06:46:30.285Z,11.30
2022-10-05T06:49:03.674Z,12.33
2022-10-05T06:51:36.822Z,11.40
2022-10-05T06:54:19.196Z,11.40
2022-10-05T06:56:51.974Z,11.57
2022-10-05T06:59:23.176Z,11.63
2022-10-05T07:01:50.651Z,12.43
2022-10-05T07:04:40.072Z,12.57
2022-10-05T07:07:25.587Z,13.13
2022-10-05T07:09:56.444Z,15.30
2022-10-05T07:12:35.640Z,16.33
2022-10-05T07:15:13.699Z,15.50
2022-10-05T07:18:04.110Z,15.27
2022-10-05T07:20:33.897Z,15.80
2022-10-05T07:23:19.752Z,15.60
2022-10-05T07:25:53.778Z,14.10
2022-10-05T07:28:37.641Z,13.93
2022-10-05T07:31:07.258Z,15.10
2022-10-05T07:33:34.309Z,14.37
2022-10-05T07:36:39.055Z,15.00
2022-10-05T07:39:11.382Z,14.60
2022-10-05T07:41:54.807Z,15.13
2022-10-05T07:44:33.232Z,14.40
2022-10-05T07:47:16.140Z,13.20
2022-10-05T07:49:59.537Z,13.53
2022-10-05T07:52:34.651Z,12.50
2022-10-05T07:55:22.627Z,12.87
2022-10-05T07:57:52.765Z,11.10
2022-10-05T08:00:20.928Z,11.93
2022-10-05T08:02:48.987Z,12.03
2022-10-05T08:05:24.979Z,11.77
2022-10-05T08:07:56.052Z,11.30
2022-10-05T08:10:23.114Z,11.13
2022-10-05T08:13:09.091Z,10.93
2022-10-05T08:15:40.106Z,10.30
2022-10-05T08:18:38.075Z,9.20
2022-10-05T08:21:11.718Z,9.70
2022-10-05T08:23:43.216Z,8.47
2022-10-05T08:26:25.374Z,9.60
2022-10-05T08:28:59.976Z,9.33
2022-10-05T08:31:29.928Z,9.27
2022-10-05T08:34:07.970Z,9.60
2022-10-05T08:36:41.084Z,9.20
2022-10-05T08:39:13.568Z,10.30
2022-10-05T08:41:58.165Z,9.20
2022-10-05T08:44:35.027Z,9.83
2022-10-05T08:47:08.160Z,9.97
2022-10-05T08:49:47.250Z,9.57
2022-10-05T08:52:43.982Z,9.37
2022-10-05T08:55:11.032Z,8.90
2022-10-05T08:57:38.196Z,9.27
2022-10-05T09:00:14.212Z,8.87
2022-10-05T09:03:01.613Z,8.80
2022-10-05T09:05:37.721Z,8.67
2022-10-05T09:08:04.814Z,8.30
2022-10-05T09:10:31.863Z,8.77
2022-10-05T09:13:42.466Z,7.00
2022-10-05T09:16:28.141Z,7.80
2022-10-05T09:19:10.564Z,8.07
2022-10-05T09:21:43.217Z,8.33
2022-10-05T09:24:13.579Z,8.40
2022-10-05T09:26:59.571Z,9.20
2022-10-05T09:29:45.396Z,9.00
2022-10-05T09:32:31.000Z,8.13
2022-10-05T09:35:16.573Z,8.03
2022-10-05T09:38:07.069Z,7.83
2022-10-05T09:40:56.731Z,8.80
2022-10-05T09:43:29.553Z,8.27
2022-10-05T09:46:02.654Z,7.37
2022-10-05T09:48:29.747Z,7.97
2022-10-05T09:51:15.562Z,8.40
2022-10-05T09:53:48.657Z,7.83
2022-10-05T09:56:34.751Z,8.70
2022-10-05T09:59:12.618Z,8.67
2022-10-05T10:01:58.443Z,10.13
2022-10-05T10:04:41.288Z,11.70
2022-10-05T10:07:11.397Z,9.00
2022-10-05T10:10:01.475Z,10.77
2022-10-05T10:12:33.523Z,10.07
2022-10-05T10:15:06.671Z,10.17
2022-10-05T10:17:52.110Z,11.07
2022-10-05T10:20:38.041Z,11.50
2022-10-05T10:23:08.313Z,11.93
2022-10-05T10:25:53.737Z,12.27
2022-10-05T10:28:23.867Z,10.27
2022-10-05T10:31:09.805Z,9.93
2022-10-05T10:33:52.314Z,10.03
2022-10-05T10:36:33.090Z,11.73
2022-10-05T10:39:00.147Z,12.77
2022-10-05T10:41:50.113Z,12.33
2022-10-05T10:44:20.118Z,11.67
2022-10-05T10:46:50.367Z,11.83
2022-10-05T10:49:26.736Z,11.93
2022-10-05T10:52:02.520Z,10.83
2022-10-05T10:54:29.653Z,11.80
2022-10-05T10:57:20.125Z,11.57
2022-10-05T10:59:53.023Z,11.37
2022-10-05T11:02:33.281Z,11.80
2022-10-05T11:05:27.360Z,11.87
2022-10-05T11:07:54.414Z,11.00
2022-10-05T11:10:21.579Z,12.17
2022-10-05T11:13:00.593Z,10.80
2022-10-05T11:15:49.264Z,12.93
2022-10-05T11:18:34.737Z,11.67
2022-10-05T11:21:20.797Z,11.53
2022-10-05T11:23:57.083Z,11.70
2022-10-05T11:26:24.140Z,11.93
2022-10-05T11:29:01.510Z,11.43
2022-10-05T11:31:31.530Z,11.93
2022-10-05T11:34:08.002Z,10.93
2022-10-05T11:36:47.559Z,11.57
2022-10-05T11:39:30.485Z,11.77
2022-10-05T11:42:00.380Z,11.00
2022-10-05T11:44:46.387Z,11.40
2022-10-05T11:47:25.237Z,11.43
2022-10-05T11:50:18.728Z,10.33
2022-10-05T11:52:49.160Z,10.90
2022-10-05T11:55:22.762Z,9.83
2022-10-05T11:57:49.837Z,8.27
2022-10-05T12:00:19.060Z,9.17
2022-10-05T12:03:24.654Z,8.50
2022-10-05T12:06:10.399Z,9.10
2022-10-05T12:08:50.872Z,8.87
2022-10-05T12:11:37.054Z,8.27
2022-10-05T12:14:04.200Z,8.77
2022-10-05T12:16:37.276Z,8.90
2022-10-05T12:19:07.455Z,9.23
2022-10-05T12:21:38.254Z,9.03
2022-10-05T12:24:09.291Z,8.23
2022-10-05T12:26:39.694Z,8.23
2022-10-05T12:29:07.835Z,8.07
2022-10-05T12:31:53.439Z,6.97
2022-10-05T12:34:23.306Z,6.40
2022-10-05T12:37:05.213Z,7.43
2022-10-05T12:40:06.216Z,7.60
2022-10-05T12:42:47.584Z,7.20
2022-10-05T12:45:32.850Z,7.73
2022-10-05T12:48:06.915Z,7.60
2022-10-05T12:50:42.533Z,8.03
2022-10-05T12:53:22.436Z,7.67
2022-10-05T12:56:08.103Z,6.87
2022-10-05T12:58:38.699Z,6.57
2022-10-05T13:01:05.794Z,7.13
2022-10-05T13:03:41.695Z,7.00
2022-10-05T13:06:29.061Z,6.77
2022-10-05T13:09:22.369Z,5.87
2022-10-05T13:11:50.944Z,6.03
2022-10-05T13:14:36.868Z,5.67
2022-10-05T13:17:22.759Z,6.03
2022-10-05T13:20:02.428Z,6.17
2022-10-05T13:22:32.826Z,6.70
2022-10-05T13:25:21.154Z,6.37
2022-10-05T13:28:03.688Z,5.03
2022-10-05T13:30:31.050Z,5.90
2022-10-05T13:33:01.347Z,6.00
2022-10-05T13:35:35.484Z,5.40
2022-10-05T13:38:08.640Z,5.17
2022-10-05T13:40:39.925Z,5.33
2022-10-05T13:43:14.081Z,5.33
2022-10-05T13:46:06.414Z,5.60
2022-10-05T13:48:36.608Z,5.50
2022-10-05T13:51:09.315Z,5.50
2022-10-05T13:53:48.560Z,6.13
2022-10-05T13:56:22.062Z,5.40
2022-10-05T13:58:49.958Z,5.60
2022-10-05T14:01:22.297Z,5.40
2022-10-05T14:04:06.112Z,5.23
2022-10-05T14:06:34.955Z,5.80
2022-10-05T14:09:02.107Z,5.63
2022-10-05T14:11:36.091Z,5.47
2022-10-05T14:14:38.647Z,5.23
2022-10-05T14:17:13.923Z,5.60
2022-10-05T14:19:45.905Z,5.83
2022-10-05T14:22:22.375Z,5.50
2022-10-05T14:24:56.767Z,5.97
2022-10-05T14:27:25.817Z,5.80
2022-10-05T14:29:55.326Z,6.63
2022-10-05T14:32:23.838Z,5.27
2022-10-05T14:35:01.222Z,5.97
2022-10-05T14:37:43.803Z,5.80
2022-10-05T14:40:31.177Z,6.27
2022-10-05T14:42:59.212Z,6.27
2022-10-05T14:45:30.039Z,7.10
2022-10-05T14:48:00.153Z,6.63
2022-10-05T14:50:31.452Z,6.40
2022-10-05T14:53:17.371Z,6.07
2022-10-05T14:55:44.432Z,6.63
2022-10-05T14:58:30.091Z,6.87
2022-10-05T15:01:02.685Z,5.77
2022-10-05T15:03:35.723Z,6.27
2022-10-05T15:06:04.515Z,6.43
2022-10-05T15:08:31.611Z,5.93
2022-10-05T15:11:06.303Z,5.40
2022-10-05T15:13:34.979Z,5.43
2022-10-05T15:16:07.547Z,5.23
2022-10-05T15:18:37.727Z,4.90
2022-10-05T15:21:16.743Z,5.23
2022-10-05T15:23:50.128Z,4.63
2022-10-05T15:26:26.577Z,4.67
2022-10-05T15:28:57.967Z,4.90
2022-10-05T15:31:28.175Z,4.60
2022-10-05T15:34:30.659Z,4.90
2022-10-05T15:37:07.167Z,4.57
2022-10-05T15:39:43.692Z,5.13
2022-10-05T15:42:12.916Z,5.30
2022-10-05T15:44:58.683Z,5.53
2022-10-05T15:47:40.489Z,4.97
2022-10-05T15:50:20.935Z,4.97
2022-10-05T15:52:52.858Z,5.47
2022-10-05T15:55:28.978Z,5.00
2022-10-05T15:58:19.540Z,5.87
2022-10-05T16:00:48.349Z,5.70
2022-10-05T16:03:23.365Z,6.07
2022-10-05T16:06:14.853Z,6.60
2022-10-05T16:08:56.174Z,7.03
2022-10-05T16:11:32.443Z,7.67
2022-10-05T16:14:14.561Z,7.50
2022-10-05T16:16:52.723Z,7.67
2022-10-05T16:19:27.884Z,6.97
2022-10-05T16:22:14.122Z,9.33
2022-10-05T16:24:41.313Z,9.53
2022-10-05T16:27:11.458Z,9.07
2022-10-05T16:29:57.498Z,10.37
2022-10-05T16:32:34.404Z,9.53
2022-10-05T16:35:10.854Z,9.17
2022-10-05T16:37:37.903Z,8.67
2022-10-05T16:40:23.231Z,8.77
2022-10-05T16:43:01.297Z,9.40
2022-10-05T16:45:28.448Z,9.30
2022-10-05T16:48:01.400Z,8.23
2022-10-05T16:50:40.271Z,8.40
2022-10-05T16:53:15.028Z,9.63
2022-10-05T16:55:44.467Z,9.20
2022-10-05T16:58:17.878Z,8.57
2022-10-05T17:00:53.836Z,8.93
2022-10-05T17:03:40.031Z,7.30
2022-10-05T17:06:07.179Z,9.27
2022-10-05T17:08:34.252Z,9.73
2022-10-05T17:11:07.048Z,9.47
2022-10-05T17:13:41.016Z,9.30
2022-10-05T17:16:11.150Z,9.03
2022-10-05T17:18:38.270Z,9.60
2022-10-05T17:21:27.637Z,9.53
2022-10-05T17:23:56.828Z,9.80
2022-10-05T17:26:23.928Z,9.70
2022-10-05T17:29:10.011Z,9.53
2022-10-05T17:31:55.582Z,9.63
2022-10-05T17:34:22.636Z,9.03
2022-10-05T17:36:51.303Z,9.33
2022-10-05T17:39:20.460Z,8.67
2022-10-05T17:41:47.927Z,8.50
2022-10-05T17:44:21.008Z,8.80
2022-10-05T17:46:49.664Z,8.17
2022-10-05T17:49:34.890Z,8.63
2022-10-05T17:52:22.032Z,8.33
2022-10-05T17:55:09.363Z,7.87
2022-10-05T17:57:37.093Z,8.97
2022-10-05T18:00:29.320Z,7.97
2022-10-05T18:02:58.243Z,7.63
2022-10-05T18:05:27.686Z,8.27
2022-10-05T18:08:13.141Z,8.60
2022-10-05T18:11:00.276Z,7.73
2022-10-05T18:13:45.444Z,8.33
2022-10-05T18:16:13.325Z,8.13
2022-10-05T18:18:43.234Z,8.00
2022-10-05T18:21:20.423Z,8.27
2022-10-05T18:23:47.510Z,7.40
2022-10-05T18:26:33.653Z,7.23
2022-10-05T18:29:36.887Z,7.20
2022-10-05T18:32:08.754Z,7.67
2022-10-05T18:34:55.651Z,7.43
2022-10-05T18:37:31.602Z,7.80
2022-10-05T18:40:15.403Z,7.17
2022-10-05T18:43:01.974Z,6.80
2022-10-05T18:45:32.249Z,6.47
2022-10-05T18:48:02.355Z,7.13
2022-10-05T18:50:48.071Z,6.63
2022-10-05T18:53:15.117Z,7.10
2022-10-05T18:55:45.177Z,7.00
2022-10-05T18:58:18.958Z,6.70
2022-10-05T19:00:54.185Z,5.67
2022-10-05T19:03:27.266Z,6.40
2022-10-05T19:05:57.453Z,6.17
2022-10-05T19:08:27.856Z,6.03
2022-10-05T19:11:02.171Z,5.90
2022-10-05T19:13:44.282Z,6.30
2022-10-05T19:16:14.437Z,5.83
2022-10-05T19:18:41.603Z,5.87
2022-10-05T19:21:31.988Z,5.93
2022-10-05T19:24:08.037Z,5.83
2022-10-05T19:26:38.287Z,5.40
2022-10-05T19:29:19.853Z,5.70
2022-10-05T19:31:49.260Z,5.50
2022-10-05T19:34:42.709Z,5.60
2022-10-05T19:37:14.041Z,5.13
2022-10-05T19:39:48.836Z,5.10
2022-10-05T19:42:19.002Z,5.70
2022-10-05T19:45:00.216Z,5.17
2022-10-05T19:47:40.265Z,5.00
2022-10-05T19:50:27.019Z,5.30
2022-10-05T19:53:03.965Z,4.50
2022-10-05T19:55:37.209Z,5.27
2022-10-05T19:58:16.961Z,5.10
2022-10-05T20:00:45.804Z,5.30
2022-10-05T20:03:23.379Z,5.17
2022-10-05T20:05:50.511Z,4.90
2022-10-05T20:08:19.156Z,5.13
2022-10-05T20:11:04.596Z,5.20
2022-10-05T20:13:35.001Z,4.80
2022-10-05T20:16:37.798Z,5.40
2022-10-05T20:19:36.149Z,4.80
2022-10-05T20:22:21.998Z,5.03
2022-10-05T20:24:50.711Z,5.83
2022-10-05T20:27:38.732Z,5.40
2022-10-05T20:30:06.639Z,5.10
2022-10-05T20:32:33.986Z,5.30
2022-10-05T20:35:01.190Z,6.10
2022-10-05T20:37:28.283Z,5.30
2022-10-05T20:39:55.351Z,5.23
2022-10-05T20:42:23.831Z,6.53
2022-10-05T20:44:56.542Z,4.53
2022-10-05T20:47:24.605Z,4.90
2022-10-05T20:49:53.339Z,5.30
2022-10-05T20:52:20.437Z,4.90
2022-10-05T20:54:47.994Z,4.83
2022-10-05T20:57:15.103Z,4.80
2022-10-05T20:59:42.248Z,5.20
2022-10-05T21:02:09.887Z,4.83
2022-10-05T21:04:41.550Z,4.73
2022-10-05T21:07:09.095Z,4.83
2022-10-05T21:09:38.370Z,5.30
2022-10-05T21:12:05.607Z,5.33
2022-10-05T21:14:34.384Z,5.33
2022-10-05T21:17:02.136Z,4.60
2022-10-05T21:19:29.560Z,5.00
2022-10-05T21:21:59.055Z,5.03
2022-10-05T21:24:26.318Z,5.43
2022-10-05T21:26:56.777Z,4.83
2022-10-05T21:29:23.912Z,5.40
2022-10-05T21:31:51.169Z,5.37
2022-10-05T21:34:18.350Z,5.37
2022-10-05T21:36:45.504Z,5.63
2022-10-05T21:39:12.604Z,5.20
2022-10-05T21:41:39.751Z,5.80
2022-10-05T21:44:06.974Z,6.17
2022-10-05T21:46:35.935Z,5.67
2022-10-05T21:49:03.186Z,5.80
2022-10-05T21:51:30.344Z,5.80
2022-10-05T21:53:58.833Z,6.07
2022-10-05T21:56:28.875Z,5.93
2022-10-05T21:58:55.964Z,6.07
2022-10-05T22:01:23.311Z,6.50
2022-10-05T22:03:50.476Z,6.60
2022-10-05T22:06:17.558Z,5.30
2022-10-05T22:08:44.648Z,6.27
2022-10-05T22:11:13.399Z,6.20
2022-10-05T22:13:47.997Z,5.70
2022-10-05T22:16:16.126Z,6.13
2022-10-05T22:18:43.466Z,6.83
2022-10-05T22:21:12.102Z,4.83
2022-10-05T22:23:42.775Z,6.40
2022-10-05T22:26:11.478Z,6.70
2022-10-05T22:28:40.202Z,7.13
2022-10-05T22:31:08.400Z,6.90
2022-10-05T22:33:36.957Z,6.80
2022-10-05T22:36:04.907Z,6.17
2022-10-05T22:38:33.207Z,7.07
2022-10-05T22:41:00.459Z,6.90
2022-10-05T22:43:27.690Z,7.00
2022-10-05T22:45:54.958Z,7.70
2022-10-05T22:48:22.419Z,7.37
2022-10-05T22:50:49.696Z,7.60
2022-10-05T22:53:16.799Z,6.33
2022-10-05T22:55:43.944Z,7.33
2022-10-05T22:58:11.137Z,7.10
2022-10-05T23:00:57.592Z,5.67
2022-10-05T23:03:25.414Z,4.20
2022-10-05T23:06:05.839Z,2.70
2022-10-05T23:08:33.832Z,2.60
2022-10-05T23:11:04.636Z,2.50
2022-10-05T23:13:31.892Z,2.40
2022-10-05T23:15:58.977Z,2.50
2022-10-05T23:18:26.661Z,2.10
2022-10-05T23:20:57.165Z,2.33
2022-10-05T23:23:25.427Z,1.80
2022-10-05T23:25:52.619Z,2.00
2022-10-05T23:28:19.743Z,1.27
2022-10-05T23:30:46.940Z,0.70
2022-10-05T23:33:14.135Z,0.90
2022-10-05T23:35:41.196Z,0.80
2022-10-05T23:38:08.283Z,0.70
2022-10-05T23:40:35.414Z,1.00
2022-10-05T23:43:02.558Z,1.10
2022-10-05T23:45:29.697Z,1.20
2022-10-05T23:47:56.777Z,1.20
2022-10-05T23:50:25.106Z,1.67
2022-10-05T23:52:52.173Z,1.10
2022-10-05T23:55:19.230Z,1.40
2022-10-05T23:57:46.298Z,1.40
